createdAt,value
2019-02-26T00:03:22.369Z,-6
2019-02-26T00:08:21.735Z,-6.1
2019-02-26T00:13:23.345Z,-6.7
2019-02-26T00:18:23.510Z,-6.1
2019-02-26T00:23:21.398Z,-6.2
2019-02-26T00:28:19.738Z,-6.3
2019-02-26T00:33:19.488Z,-6.2
2019-02-26T00:38:19.860Z,-6.5
2019-02-26T00:43:20.795Z,-7.4
2019-02-26T00:48:20.183Z,-6.4
2019-02-26T00:53:17.616Z,-7
2019-02-26T00:58:18.085Z,-6.6
2019-02-26T01:03:15.338Z,-6.5
2019-02-26T01:08:13.260Z,-6.4
2019-02-26T01:13:10.782Z,-6.7
2019-02-26T01:18:07.121Z,-6.5
2019-02-26T01:23:03.657Z,-6.6
2019-02-26T01:28:00.395Z,-6.4
2019-02-26T01:32:58.105Z,-7.8
2019-02-26T01:37:59.965Z,-6.7
2019-02-26T01:42:57.806Z,-6.5
2019-02-26T01:47:57.539Z,-6.6
2019-02-26T01:52:54.401Z,-6.7
2019-02-26T01:57:53.424Z,-6.8
2019-02-26T02:02:50.040Z,-7.8
2019-02-26T02:07:49.046Z,-6.8
2019-02-26T02:12:48.344Z,-6.9
2019-02-26T02:17:44.723Z,-7
2019-02-26T02:22:42.098Z,-6.9
2019-02-26T02:27:40.069Z,-6.9
2019-02-26T02:32:36.406Z,-6.9
2019-02-26T02:37:32.879Z,-6.9
2019-02-26T02:42:29.236Z,-7.1
2019-02-26T02:47:28.314Z,-7.9
2019-02-26T02:52:30.430Z,-7.1
2019-02-26T02:57:32.416Z,-7.7
2019-02-26T03:02:29.803Z,-7.1
2019-02-26T03:07:27.331Z,-7.3
2019-02-26T03:12:24.909Z,-7.1
2019-02-26T03:17:20.907Z,-7.4
2019-02-26T03:22:20.728Z,-6.9
2019-02-26T03:27:16.943Z,-7.1
2019-02-26T03:32:13.219Z,-7.3
2019-02-26T03:37:10.976Z,-7.3
2019-02-26T03:42:08.141Z,-7.2
2019-02-26T03:47:06.440Z,-7.2
2019-02-26T03:52:02.729Z,-7.3
2019-02-26T03:56:58.322Z,-7.2
2019-02-26T04:01:54.451Z,-7.3
2019-02-26T04:06:50.682Z,-7.4
2019-02-26T04:11:48.087Z,-7.3
2019-02-26T04:16:47.455Z,-7.2
2019-02-26T04:21:43.664Z,-7
2019-02-26T04:26:39.278Z,-7.1
2019-02-26T04:31:35.698Z,-7.4
2019-02-26T04:36:34.250Z,-7.4
2019-02-26T04:41:32.775Z,-7.7
2019-02-26T04:46:31.528Z,-7.5
2019-02-26T04:51:34.233Z,-7.6
2019-02-26T04:56:36.929Z,-7.4
2019-02-26T05:01:36.798Z,-7.5
2019-02-26T05:06:33.173Z,-7.5
2019-02-26T05:11:32.282Z,-8.4
2019-02-26T05:16:35.134Z,-7.3
2019-02-26T05:21:37.489Z,-7.1
2019-02-26T05:26:33.758Z,-7.2
2019-02-26T05:31:32.335Z,-7.1
2019-02-26T05:36:33.224Z,-6.9
2019-02-26T05:41:32.321Z,-6.7
2019-02-26T05:46:29.472Z,-7.7
2019-02-26T05:51:27.421Z,-8.1
2019-02-26T05:56:27.623Z,-7.5
2019-02-26T06:01:24.936Z,-7
2019-02-26T06:06:25.122Z,-6.1
2019-02-26T06:11:23.102Z,-5.2
2019-02-26T06:16:21.751Z,-5.9
2019-02-26T06:21:20.879Z,-5.9
2019-02-26T06:26:21.089Z,-5.1
2019-02-26T06:31:19.829Z,-5.2
2019-02-26T06:36:21.443Z,-5.3
2019-02-26T06:41:21.503Z,-4.4
2019-02-26T06:46:18.912Z,-3.1
2019-02-26T06:51:15.307Z,-2.9
2019-02-26T06:56:10.869Z,-3.8
2019-02-26T07:01:09.457Z,-3.7
2019-02-26T07:06:08.462Z,-3
2019-02-26T07:11:04.486Z,-3.3
2019-02-26T07:16:04.531Z,-2.6
2019-02-26T07:21:00.935Z,-2.3
2019-02-26T07:25:57.586Z,-3.3
2019-02-26T07:30:53.925Z,-1.8
2019-02-26T07:35:49.987Z,-2.9
2019-02-26T07:40:47.313Z,-2.4
2019-02-26T07:45:44.068Z,-2
2019-02-26T07:50:43.509Z,-1.8
2019-02-26T07:55:43.402Z,-1.8
2019-02-26T08:00:40.370Z,-1.6
2019-02-26T08:05:41.738Z,-1.3
2019-02-26T08:10:40.011Z,0.4
2019-02-26T08:15:39.862Z,0
2019-02-26T08:20:37.562Z,0.7
2019-02-26T08:25:35.827Z,0
2019-02-26T08:30:32.791Z,1.6
2019-02-26T08:35:29.726Z,1.1
2019-02-26T08:40:26.311Z,0.5
2019-02-26T08:45:25.647Z,1.5
2019-02-26T08:50:21.521Z,1.5
2019-02-26T08:55:21.337Z,1.7
2019-02-26T09:00:19.227Z,2.6
2019-02-26T09:05:15.594Z,1.8
2019-02-26T09:10:15.616Z,3.2
2019-02-26T09:15:15.821Z,2.7
2019-02-26T09:20:14.542Z,2.8
2019-02-26T09:25:12.601Z,4.1
2019-02-26T09:30:08.941Z,5.7
2019-02-26T09:35:07.937Z,3.7
2019-02-26T09:40:04.938Z,4.7
2019-02-26T09:45:00.739Z,4.4
2019-02-26T09:49:58.457Z,5.2
2019-02-26T09:54:55.193Z,3.9
2019-02-26T09:59:52.597Z,4.8
2019-02-26T10:04:54.403Z,5
2019-02-26T10:09:49.999Z,4.9
2019-02-26T10:14:50.364Z,6
2019-02-26T10:19:49.774Z,7.2
2019-02-26T10:24:46.576Z,5.9
2019-02-26T10:29:45.011Z,5.4
2019-02-26T10:34:44.472Z,8.1
2019-02-26T10:39:39.528Z,6.9
2019-02-26T10:44:36.921Z,7
2019-02-26T10:49:34.927Z,6.7
2019-02-26T10:54:36.593Z,7.8
2019-02-26T10:59:38.143Z,9.6
2019-02-26T11:04:35.376Z,9.3
2019-02-26T11:09:35.227Z,6.5
2019-02-26T11:14:33.064Z,7.6
2019-02-26T11:19:35.851Z,8.1
2019-02-26T11:24:36.331Z,6.9
2019-02-26T11:29:33.723Z,8.5
2019-02-26T11:34:36.181Z,9
2019-02-26T11:39:35.016Z,9.2
2019-02-26T11:44:29.845Z,8.4
2019-02-26T11:49:27.694Z,8.3
2019-02-26T11:54:24.121Z,10
2019-02-26T11:59:19.903Z,9.1
2019-02-26T12:04:17.241Z,10.4
2019-02-26T12:09:13.745Z,8.9
2019-02-26T12:14:13.605Z,8.6
2019-02-26T12:19:14.386Z,9.9
2019-02-26T12:24:12.523Z,8.9
2019-02-26T12:29:08.628Z,8.8
2019-02-26T12:34:05.200Z,8.7
2019-02-26T12:39:02.585Z,8.8
2019-02-26T12:43:59.284Z,8.2
2019-02-26T12:49:02.877Z,8.5
2019-02-26T12:54:03.498Z,7.9
2019-02-26T12:59:06.976Z,7.2
2019-02-26T13:04:03.603Z,7.8
2019-02-26T13:09:00.069Z,7.6
2019-02-26T13:13:56.489Z,7.5
2019-02-26T13:18:57.852Z,8.2
2019-02-26T13:23:59.832Z,7.1
2019-02-26T13:29:05.763Z,7.4
2019-02-26T13:34:02.676Z,7.6
2019-02-26T13:38:59.802Z,7.6
2019-02-26T13:43:55.613Z,7.3
2019-02-26T13:48:51.957Z,7.4
2019-02-26T13:53:49.040Z,7.4
2019-02-26T13:58:45.852Z,7.5
2019-02-26T14:03:42.799Z,7.8
2019-02-26T14:08:38.993Z,7.5
2019-02-26T14:13:36.495Z,7.2
2019-02-26T14:18:33.543Z,7.3
2019-02-26T14:23:34.727Z,6.8
2019-02-26T14:28:31.284Z,6.7
2019-02-26T14:33:27.548Z,6.5
2019-02-26T14:38:24.046Z,6.5
2019-02-26T14:43:21.159Z,6.4
2019-02-26T14:48:18.071Z,6.4
2019-02-26T14:53:14.951Z,6.2
2019-02-26T14:58:11.286Z,6
2019-02-26T15:03:07.671Z,5.8
2019-02-26T15:08:04.241Z,5.7
2019-02-26T15:13:00.654Z,5.6
2019-02-26T15:17:57.139Z,5.4
2019-02-26T15:22:53.755Z,5.2
2019-02-26T15:27:50.321Z,5.3
2019-02-26T15:32:46.595Z,5.2
2019-02-26T15:37:43.316Z,5.1
2019-02-26T15:42:41.593Z,5.1
2019-02-26T15:47:37.727Z,5
2019-02-26T15:52:34.399Z,4.7
2019-02-26T15:57:31.056Z,4.7
2019-02-26T16:02:28.425Z,4.2
2019-02-26T16:07:25.326Z,3.8
2019-02-26T16:12:21.316Z,3.5
2019-02-26T16:17:18.004Z,2.9
2019-02-26T16:22:14.954Z,2.9
2019-02-26T16:27:11.567Z,2.7
2019-02-26T16:32:06.992Z,2.3
2019-02-26T16:37:07.105Z,2.5
2019-02-26T16:42:03.838Z,2.4
2019-02-26T16:47:00.809Z,2.7
2019-02-26T16:51:57.555Z,2.4
2019-02-26T16:56:54.633Z,0.8
2019-02-26T17:01:52.580Z,2.2
2019-02-26T17:06:51.502Z,2
2019-02-26T17:11:50.231Z,1.7
2019-02-26T17:16:46.449Z,1.8
2019-02-26T17:21:43.891Z,2
2019-02-26T17:26:39.601Z,1.7
2019-02-26T17:31:36.418Z,1.6
2019-02-26T17:36:35.366Z,1.5
2019-02-26T17:41:31.906Z,0.7
2019-02-26T17:46:28.876Z,1.5
2019-02-26T17:51:25.916Z,1.9
2019-02-26T17:56:26.220Z,1.8
2019-02-26T18:01:22.483Z,2
2019-02-26T18:06:18.657Z,2
2019-02-26T18:11:15.328Z,1.4
2019-02-26T18:16:11.552Z,0.2
2019-02-26T18:21:08.335Z,0.7
2019-02-26T18:26:05.460Z,0.5
2019-02-26T18:31:01.809Z,-0.1
2019-02-26T18:35:59.280Z,-0.8
2019-02-26T18:40:55.555Z,0
2019-02-26T18:45:52.767Z,-0.5
2019-02-26T18:50:49.782Z,0.4
2019-02-26T18:55:46.960Z,1
2019-02-26T19:00:43.104Z,0.3
2019-02-26T19:05:39.780Z,0.2
2019-02-26T19:10:36.636Z,0.4
2019-02-26T19:15:33.638Z,0.8
2019-02-26T19:20:30.624Z,1.3
2019-02-26T19:25:27.543Z,1.2
2019-02-26T19:30:23.989Z,0.7
2019-02-26T19:35:20.788Z,0.7
2019-02-26T19:40:17.270Z,0.6
2019-02-26T19:45:13.278Z,0
2019-02-26T19:50:11.615Z,-1
2019-02-26T19:55:09.267Z,1.2
2019-02-26T20:00:05.951Z,1
2019-02-26T20:05:02.140Z,-0.6
2019-02-26T20:09:59.678Z,1
2019-02-26T20:14:56.808Z,0.7
2019-02-26T20:19:53.132Z,-0.3
2019-02-26T20:24:49.144Z,-0.7
2019-02-26T20:29:45.573Z,-0.9
2019-02-26T20:34:42.386Z,-1.4
2019-02-26T20:39:40.809Z,-0.8
2019-02-26T20:44:42.322Z,-0.8
2019-02-26T20:49:40.614Z,0.4
2019-02-26T20:54:37.334Z,-0.1
2019-02-26T20:59:34.389Z,0.3
2019-02-26T21:04:30.735Z,-0.6
2019-02-26T21:09:27.051Z,-0.2
2019-02-26T21:14:23.622Z,-0.2
2019-02-26T21:19:20.414Z,-0.1
2019-02-26T21:24:17.421Z,1.3
2019-02-26T21:29:14.755Z,1.6
2019-02-26T21:34:11.413Z,1.8
2019-02-26T21:39:10.785Z,1.8
2019-02-26T21:44:08.902Z,0.9
2019-02-26T21:49:07.495Z,1.4
2019-02-26T21:54:06.016Z,0.9
2019-02-26T21:59:02.525Z,1.3
2019-02-26T22:03:59.149Z,0.7
2019-02-26T22:08:57.061Z,0.8
2019-02-26T22:13:53.836Z,0.1
2019-02-26T22:18:49.897Z,-0.2
2019-02-26T22:23:46.516Z,-0.3
2019-02-26T22:28:43.131Z,-0.6
2019-02-26T22:33:40.690Z,-0.9
2019-02-26T22:38:41.490Z,-1
2019-02-26T22:43:37.831Z,-1.2
2019-02-26T22:48:34.451Z,-1.9
2019-02-26T22:53:31.254Z,-1.9
2019-02-26T22:58:28.050Z,-1.8
2019-02-26T23:03:24.730Z,-1.9
2019-02-26T23:08:21.285Z,-1.3
2019-02-26T23:13:18.067Z,-1.3
2019-02-26T23:18:14.489Z,-1.7
2019-02-26T23:23:10.643Z,-1.6
2019-02-26T23:28:06.508Z,-1.6
2019-02-26T23:33:02.732Z,-1.8
2019-02-26T23:37:59.223Z,-1.5
2019-02-26T23:42:55.716Z,-1.4
2019-02-26T23:47:51.936Z,-1.5
2019-02-26T23:52:48.660Z,-1
2019-02-26T23:57:45.205Z,-0.7
